sensor_id;sensor_type;location;lat;lon;timestamp;temperature;humidity
40996;DHT22;26723;57.478;12.066;2023-03-08T00:00:32;-2.60;99.90
40996;DHT22;26723;57.478;12.066;2023-03-08T00:03:42;-2.60;99.90
40996;DHT22;26723;57.478;12.066;2023-03-08T00:06:51;-2.60;99.90
40996;DHT22;26723;57.478;12.066;2023-03-08T00:09:59;-2.70;99.90
40996;DHT22;26723;57.478;12.066;2023-03-08T00:13:08;-2.70;99.90
40996;DHT22;26723;57.478;12.066;2023-03-08T00:16:16;-2.70;99.90
40996;DHT22;26723;57.478;12.066;2023-03-08T00:19:26;-2.70;99.90
40996;DHT22;26723;57.478;12.066;2023-03-08T00:22:35;-2.70;99.90
40996;DHT22;26723;57.478;12.066;2023-03-08T00:25:44;-2.60;99.90
40996;DHT22;26723;57.478;12.066;2023-03-08T00:28:52;-2.70;99.90
40996;DHT22;26723;57.478;12.066;2023-03-08T00:32:00;-2.80;99.90
40996;DHT22;26723;57.478;12.066;2023-03-08T00:35:10;-2.70;99.90
40996;DHT22;26723;57.478;12.066;2023-03-08T00:38:18;-2.90;99.90
40996;DHT22;26723;57.478;12.066;2023-03-08T00:41:27;-2.80;99.90
40996;DHT22;26723;57.478;12.066;2023-03-08T00:44:36;-2.80;99.90
40996;DHT22;26723;57.478;12.066;2023-03-08T00:47:44;-2.90;99.90
40996;DHT22;26723;57.478;12.066;2023-03-08T00:50:54;-2.90;99.90
40996;DHT22;26723;57.478;12.066;2023-03-08T00:54:03;-2.90;99.90
40996;DHT22;26723;57.478;12.066;2023-03-08T00:57:11;-3.00;99.90
40996;DHT22;26723;57.478;12.066;2023-03-08T01:00:20;-3.10;99.90
40996;DHT22;26723;57.478;12.066;2023-03-08T01:03:30;-3.10;99.90
40996;DHT22;26723;57.478;12.066;2023-03-08T01:06:40;-3.10;99.90
40996;DHT22;26723;57.478;12.066;2023-03-08T01:09:53;-3.20;99.90
40996;DHT22;26723;57.478;12.066;2023-03-08T01:13:03;-3.20;99.90
40996;DHT22;26723;57.478;12.066;2023-03-08T01:16:16;-3.10;99.90
40996;DHT22;26723;57.478;12.066;2023-03-08T01:19:25;-3.20;99.90
40996;DHT22;26723;57.478;12.066;2023-03-08T01:22:35;-3.30;99.90
40996;DHT22;26723;57.478;12.066;2023-03-08T01:25:43;-3.30;99.90
40996;DHT22;26723;57.478;12.066;2023-03-08T01:28:52;-3.30;99.90
40996;DHT22;26723;57.478;12.066;2023-03-08T01:32:03;-3.40;99.90
40996;DHT22;26723;57.478;12.066;2023-03-08T01:35:11;-3.40;99.90
40996;DHT22;26723;57.478;12.066;2023-03-08T01:38:22;-3.50;99.90
40996;DHT22;26723;57.478;12.066;2023-03-08T01:41:31;-3.50;99.90
40996;DHT22;26723;57.478;12.066;2023-03-08T01:44:53;-3.50;99.90
40996;DHT22;26723;57.478;12.066;2023-03-08T01:48:02;-3.50;99.90
40996;DHT22;26723;57.478;12.066;2023-03-08T01:51:52;-3.60;99.90
40996;DHT22;26723;57.478;12.066;2023-03-08T01:55:06;-3.70;99.90
40996;DHT22;26723;57.478;12.066;2023-03-08T01:58:17;-4.00;99.90
40996;DHT22;26723;57.478;12.066;2023-03-08T02:01:26;-4.00;99.90
40996;DHT22;26723;57.478;12.066;2023-03-08T02:04:38;-4.10;99.90
40996;DHT22;26723;57.478;12.066;2023-03-08T02:07:51;-4.30;99.90
40996;DHT22;26723;57.478;12.066;2023-03-08T02:11:06;-4.40;99.90
40996;DHT22;26723;57.478;12.066;2023-03-08T02:14:15;-4.60;99.90
40996;DHT22;26723;57.478;12.066;2023-03-08T02:17:27;-4.80;99.90
40996;DHT22;26723;57.478;12.066;2023-03-08T02:20:38;-4.90;99.90
40996;DHT22;26723;57.478;12.066;2023-03-08T02:23:49;-5.00;99.90
40996;DHT22;26723;57.478;12.066;2023-03-08T02:27:02;-5.00;99.90
40996;DHT22;26723;57.478;12.066;2023-03-08T02:30:15;-5.10;99.90
40996;DHT22;26723;57.478;12.066;2023-03-08T02:33:26;-5.00;99.90
40996;DHT22;26723;57.478;12.066;2023-03-08T02:36:36;-5.10;99.90
40996;DHT22;26723;57.478;12.066;2023-03-08T02:39:46;-5.10;99.90
40996;DHT22;26723;57.478;12.066;2023-03-08T02:42:54;-5.30;99.90
40996;DHT22;26723;57.478;12.066;2023-03-08T02:46:03;-5.20;99.90
40996;DHT22;26723;57.478;12.066;2023-03-08T02:49:11;-5.10;99.90
40996;DHT22;26723;57.478;12.066;2023-03-08T02:52:22;-5.10;99.90
40996;DHT22;26723;57.478;12.066;2023-03-08T02:55:32;-5.10;99.90
40996;DHT22;26723;57.478;12.066;2023-03-08T02:58:47;-5.10;99.90
40996;DHT22;26723;57.478;12.066;2023-03-08T03:01:55;-5.20;99.90
40996;DHT22;26723;57.478;12.066;2023-03-08T03:05:06;-5.20;99.90
40996;DHT22;26723;57.478;12.066;2023-03-08T03:08:19;-5.20;99.90
40996;DHT22;26723;57.478;12.066;2023-03-08T03:11:29;-5.40;99.90
40996;DHT22;26723;57.478;12.066;2023-03-08T03:14:38;-5.20;99.90
40996;DHT22;26723;57.478;12.066;2023-03-08T03:17:46;-5.20;99.90
40996;DHT22;26723;57.478;12.066;2023-03-08T03:20:55;-5.00;99.90
40996;DHT22;26723;57.478;12.066;2023-03-08T03:24:09;-4.90;99.90
40996;DHT22;26723;57.478;12.066;2023-03-08T03:27:27;-4.90;99.90
40996;DHT22;26723;57.478;12.066;2023-03-08T03:30:35;-4.80;99.90
40996;DHT22;26723;57.478;12.066;2023-03-08T03:33:45;-4.80;99.90
40996;DHT22;26723;57.478;12.066;2023-03-08T03:36:54;-4.70;99.90
40996;DHT22;26723;57.478;12.066;2023-03-08T03:40:04;-4.70;99.90
40996;DHT22;26723;57.478;12.066;2023-03-08T03:43:14;-4.70;99.90
40996;DHT22;26723;57.478;12.066;2023-03-08T03:46:23;-4.70;99.90
40996;DHT22;26723;57.478;12.066;2023-03-08T03:49:34;-4.70;99.90
40996;DHT22;26723;57.478;12.066;2023-03-08T03:52:43;-4.80;99.90
40996;DHT22;26723;57.478;12.066;2023-03-08T03:55:52;-4.80;99.90
40996;DHT22;26723;57.478;12.066;2023-03-08T03:59:02;-5.00;99.90
40996;DHT22;26723;57.478;12.066;2023-03-08T04:02:11;-5.20;99.90
40996;DHT22;26723;57.478;12.066;2023-03-08T04:05:39;-5.40;99.90
40996;DHT22;26723;57.478;12.066;2023-03-08T04:08:48;-5.60;99.90
40996;DHT22;26723;57.478;12.066;2023-03-08T04:11:58;-5.80;99.90
40996;DHT22;26723;57.478;12.066;2023-03-08T04:15:11;-5.80;99.90
40996;DHT22;26723;57.478;12.066;2023-03-08T04:18:19;-5.70;99.90
40996;DHT22;26723;57.478;12.066;2023-03-08T04:21:28;-5.70;99.90
40996;DHT22;26723;57.478;12.066;2023-03-08T04:24:37;-5.90;99.90
40996;DHT22;26723;57.478;12.066;2023-03-08T04:27:50;-6.20;99.90
40996;DHT22;26723;57.478;12.066;2023-03-08T04:31:10;-6.40;99.90
40996;DHT22;26723;57.478;12.066;2023-03-08T04:34:19;-6.50;99.90
40996;DHT22;26723;57.478;12.066;2023-03-08T04:37:29;-6.60;99.90
40996;DHT22;26723;57.478;12.066;2023-03-08T04:40:58;-6.80;99.90
40996;DHT22;26723;57.478;12.066;2023-03-08T04:44:25;-6.80;99.90
40996;DHT22;26723;57.478;12.066;2023-03-08T04:47:36;-6.90;99.90
40996;DHT22;26723;57.478;12.066;2023-03-08T04:50:50;-6.80;99.90
40996;DHT22;26723;57.478;12.066;2023-03-08T04:53:59;-7.00;99.90
40996;DHT22;26723;57.478;12.066;2023-03-08T04:57:08;-7.10;99.90
40996;DHT22;26723;57.478;12.066;2023-03-08T05:00:19;-7.20;99.90
40996;DHT22;26723;57.478;12.066;2023-03-08T05:03:29;-7.30;99.90
40996;DHT22;26723;57.478;12.066;2023-03-08T05:06:38;-7.30;99.90
40996;DHT22;26723;57.478;12.066;2023-03-08T05:09:48;-7.30;99.90
40996;DHT22;26723;57.478;12.066;2023-03-08T05:12:57;-7.20;99.90
40996;DHT22;26723;57.478;12.066;2023-03-08T05:16:06;-7.30;99.90
40996;DHT22;26723;57.478;12.066;2023-03-08T05:19:16;-7.30;99.90
40996;DHT22;26723;57.478;12.066;2023-03-08T05:22:29;-7.40;99.90
40996;DHT22;26723;57.478;12.066;2023-03-08T05:25:40;-7.50;99.90
40996;DHT22;26723;57.478;12.066;2023-03-08T05:28:51;-7.50;99.90
40996;DHT22;26723;57.478;12.066;2023-03-08T05:32:09;-7.70;99.90
40996;DHT22;26723;57.478;12.066;2023-03-08T05:35:20;-7.80;99.90
40996;DHT22;26723;57.478;12.066;2023-03-08T05:38:30;-7.90;99.90
40996;DHT22;26723;57.478;12.066;2023-03-08T05:41:43;-7.90;99.90
40996;DHT22;26723;57.478;12.066;2023-03-08T05:44:58;-8.00;99.90
40996;DHT22;26723;57.478;12.066;2023-03-08T05:48:12;-8.20;99.90
40996;DHT22;26723;57.478;12.066;2023-03-08T05:51:22;-8.20;99.90
40996;DHT22;26723;57.478;12.066;2023-03-08T05:54:32;-8.30;99.90
40996;DHT22;26723;57.478;12.066;2023-03-08T05:57:46;-8.20;99.90
40996;DHT22;26723;57.478;12.066;2023-03-08T06:00:54;-8.30;99.90
40996;DHT22;26723;57.478;12.066;2023-03-08T06:04:03;-8.40;99.90
40996;DHT22;26723;57.478;12.066;2023-03-08T06:07:16;-8.50;99.90
40996;DHT22;26723;57.478;12.066;2023-03-08T06:10:30;-8.60;99.90
40996;DHT22;26723;57.478;12.066;2023-03-08T06:13:40;-8.70;99.90
40996;DHT22;26723;57.478;12.066;2023-03-08T06:16:48;-8.60;99.90
40996;DHT22;26723;57.478;12.066;2023-03-08T06:20:01;-8.60;99.90
40996;DHT22;26723;57.478;12.066;2023-03-08T06:23:14;-8.60;99.90
40996;DHT22;26723;57.478;12.066;2023-03-08T06:26:23;-8.40;99.90
40996;DHT22;26723;57.478;12.066;2023-03-08T06:29:32;-5.90;99.90
40996;DHT22;26723;57.478;12.066;2023-03-08T06:32:41;-3.10;99.90
40996;DHT22;26723;57.478;12.066;2023-03-08T06:35:57;-1.30;99.90
40996;DHT22;26723;57.478;12.066;2023-03-08T06:39:08;-0.30;99.90
40996;DHT22;26723;57.478;12.066;2023-03-08T06:42:17;0.70;99.90
40996;DHT22;26723;57.478;12.066;2023-03-08T06:45:37;1.50;99.90
40996;DHT22;26723;57.478;12.066;2023-03-08T06:48:47;2.10;99.90
40996;DHT22;26723;57.478;12.066;2023-03-08T06:51:56;3.10;99.90
40996;DHT22;26723;57.478;12.066;2023-03-08T06:55:09;3.80;99.90
40996;DHT22;26723;57.478;12.066;2023-03-08T06:58:18;4.30;99.90
40996;DHT22;26723;57.478;12.066;2023-03-08T07:01:26;4.60;99.90
40996;DHT22;26723;57.478;12.066;2023-03-08T07:04:35;5.00;99.90
40996;DHT22;26723;57.478;12.066;2023-03-08T07:07:43;5.40;99.90
40996;DHT22;26723;57.478;12.066;2023-03-08T07:10:53;6.20;99.90
40996;DHT22;26723;57.478;12.066;2023-03-08T07:14:02;6.70;99.90
40996;DHT22;26723;57.478;12.066;2023-03-08T07:17:10;7.40;99.90
40996;DHT22;26723;57.478;12.066;2023-03-08T07:20:20;7.80;99.90
40996;DHT22;26723;57.478;12.066;2023-03-08T07:23:29;8.30;99.90
40996;DHT22;26723;57.478;12.066;2023-03-08T07:26:39;8.50;99.90
40996;DHT22;26723;57.478;12.066;2023-03-08T07:29:47;8.70;99.30
40996;DHT22;26723;57.478;12.066;2023-03-08T07:32:56;9.10;97.50
40996;DHT22;26723;57.478;12.066;2023-03-08T07:36:05;9.50;96.00
40996;DHT22;26723;57.478;12.066;2023-03-08T07:39:13;9.60;95.70
40996;DHT22;26723;57.478;12.066;2023-03-08T07:42:24;10.10;94.70
40996;DHT22;26723;57.478;12.066;2023-03-08T07:45:39;10.80;93.70
40996;DHT22;26723;57.478;12.066;2023-03-08T07:48:47;11.20;94.00
40996;DHT22;26723;57.478;12.066;2023-03-08T07:51:56;11.80;92.90
40996;DHT22;26723;57.478;12.066;2023-03-08T07:55:05;12.10;92.40
40996;DHT22;26723;57.478;12.066;2023-03-08T07:58:15;12.40;92.10
40996;DHT22;26723;57.478;12.066;2023-03-08T08:01:24;12.70;92.10
40996;DHT22;26723;57.478;12.066;2023-03-08T08:04:34;12.70;90.40
40996;DHT22;26723;57.478;12.066;2023-03-08T08:07:45;12.80;87.50
40996;DHT22;26723;57.478;12.066;2023-03-08T08:10:53;12.70;88.00
40996;DHT22;26723;57.478;12.066;2023-03-08T08:14:03;13.30;84.80
40996;DHT22;26723;57.478;12.066;2023-03-08T08:17:12;14.00;85.00
40996;DHT22;26723;57.478;12.066;2023-03-08T08:20:20;14.50;83.50
40996;DHT22;26723;57.478;12.066;2023-03-08T08:23:30;14.60;80.50
40996;DHT22;26723;57.478;12.066;2023-03-08T08:26:39;15.00;82.30
40996;DHT22;26723;57.478;12.066;2023-03-08T08:29:48;14.60;77.30
40996;DHT22;26723;57.478;12.066;2023-03-08T08:32:57;14.90;78.90
40996;DHT22;26723;57.478;12.066;2023-03-08T08:36:08;15.40;77.90
40996;DHT22;26723;57.478;12.066;2023-03-08T08:39:18;15.60;78.70
40996;DHT22;26723;57.478;12.066;2023-03-08T08:42:26;15.50;76.40
40996;DHT22;26723;57.478;12.066;2023-03-08T08:45:40;15.80;78.30
40996;DHT22;26723;57.478;12.066;2023-03-08T08:48:49;15.90;75.30
40996;DHT22;26723;57.478;12.066;2023-03-08T08:51:57;16.00;77.20
40996;DHT22;26723;57.478;12.066;2023-03-08T08:55:06;16.40;72.20
40996;DHT22;26723;57.478;12.066;2023-03-08T08:58:17;16.30;73.10
40996;DHT22;26723;57.478;12.066;2023-03-08T09:01:28;16.20;75.80
40996;DHT22;26723;57.478;12.066;2023-03-08T09:04:37;15.70;75.00
40996;DHT22;26723;57.478;12.066;2023-03-08T09:07:46;15.50;75.50
40996;DHT22;26723;57.478;12.066;2023-03-08T09:10:54;13.60;78.60
40996;DHT22;26723;57.478;12.066;2023-03-08T09:14:03;12.30;83.20
40996;DHT22;26723;57.478;12.066;2023-03-08T09:17:13;11.90;85.80
40996;DHT22;26723;57.478;12.066;2023-03-08T09:20:22;11.60;84.40
40996;DHT22;26723;57.478;12.066;2023-03-08T09:23:30;11.30;86.70
40996;DHT22;26723;57.478;12.066;2023-03-08T09:26:39;11.20;85.60
40996;DHT22;26723;57.478;12.066;2023-03-08T09:29:47;11.00;86.90
40996;DHT22;26723;57.478;12.066;2023-03-08T09:32:57;10.50;90.80
40996;DHT22;26723;57.478;12.066;2023-03-08T09:36:06;10.90;87.70
40996;DHT22;26723;57.478;12.066;2023-03-08T09:39:15;10.40;88.00
40996;DHT22;26723;57.478;12.066;2023-03-08T09:42:26;10.80;90.90
40996;DHT22;26723;57.478;12.066;2023-03-08T09:45:36;10.90;85.60
40996;DHT22;26723;57.478;12.066;2023-03-08T09:48:48;10.40;90.50
40996;DHT22;26723;57.478;12.066;2023-03-08T09:52:03;10.60;92.00
40996;DHT22;26723;57.478;12.066;2023-03-08T09:55:19;10.00;91.60
40996;DHT22;26723;57.478;12.066;2023-03-08T09:58:36;9.70;91.50
40996;DHT22;26723;57.478;12.066;2023-03-08T10:01:54;9.80;93.10
40996;DHT22;26723;57.478;12.066;2023-03-08T10:05:13;9.80;95.10
40996;DHT22;26723;57.478;12.066;2023-03-08T10:08:27;9.90;92.60
40996;DHT22;26723;57.478;12.066;2023-03-08T10:11:41;9.60;91.60
40996;DHT22;26723;57.478;12.066;2023-03-08T10:14:53;9.50;96.20
40996;DHT22;26723;57.478;12.066;2023-03-08T10:18:11;9.50;93.20
40996;DHT22;26723;57.478;12.066;2023-03-08T10:21:23;9.40;95.40
40996;DHT22;26723;57.478;12.066;2023-03-08T10:24:38;9.20;95.00
40996;DHT22;26723;57.478;12.066;2023-03-08T10:27:50;8.50;97.30
40996;DHT22;26723;57.478;12.066;2023-03-08T10:31:01;8.60;96.10
40996;DHT22;26723;57.478;12.066;2023-03-08T10:34:13;8.30;97.60
40996;DHT22;26723;57.478;12.066;2023-03-08T10:37:29;8.20;98.30
40996;DHT22;26723;57.478;12.066;2023-03-08T10:40:37;8.20;96.30
40996;DHT22;26723;57.478;12.066;2023-03-08T10:43:48;8.00;98.10
40996;DHT22;26723;57.478;12.066;2023-03-08T10:46:57;7.50;99.40
40996;DHT22;26723;57.478;12.066;2023-03-08T10:50:12;7.60;99.00
40996;DHT22;26723;57.478;12.066;2023-03-08T10:53:22;7.60;99.20
40996;DHT22;26723;57.478;12.066;2023-03-08T10:56:37;7.20;98.00
40996;DHT22;26723;57.478;12.066;2023-03-08T10:59:48;7.00;98.80
40996;DHT22;26723;57.478;12.066;2023-03-08T11:03:13;7.10;99.20
40996;DHT22;26723;57.478;12.066;2023-03-08T11:06:23;6.90;99.30
40996;DHT22;26723;57.478;12.066;2023-03-08T11:09:33;7.00;99.10
40996;DHT22;26723;57.478;12.066;2023-03-08T11:12:43;6.90;99.90
40996;DHT22;26723;57.478;12.066;2023-03-08T11:15:58;6.80;99.90
40996;DHT22;26723;57.478;12.066;2023-03-08T11:19:20;6.50;99.80
40996;DHT22;26723;57.478;12.066;2023-03-08T11:22:48;6.40;99.90
40996;DHT22;26723;57.478;12.066;2023-03-08T11:26:06;6.50;99.50
40996;DHT22;26723;57.478;12.066;2023-03-08T11:29:28;6.60;98.70
40996;DHT22;26723;57.478;12.066;2023-03-08T11:32:50;6.40;97.80
40996;DHT22;26723;57.478;12.066;2023-03-08T11:36:05;6.20;99.90
40996;DHT22;26723;57.478;12.066;2023-03-08T11:39:21;6.00;98.30
40996;DHT22;26723;57.478;12.066;2023-03-08T11:42:42;5.80;99.90
40996;DHT22;26723;57.478;12.066;2023-03-08T11:45:56;5.70;99.60
40996;DHT22;26723;57.478;12.066;2023-03-08T11:49:19;5.60;99.90
40996;DHT22;26723;57.478;12.066;2023-03-08T11:52:35;5.50;98.50
40996;DHT22;26723;57.478;12.066;2023-03-08T11:56:04;5.50;99.90
40996;DHT22;26723;57.478;12.066;2023-03-08T11:59:23;5.50;99.50
40996;DHT22;26723;57.478;12.066;2023-03-08T12:02:38;5.30;99.10
40996;DHT22;26723;57.478;12.066;2023-03-08T12:05:49;5.40;99.40
40996;DHT22;26723;57.478;12.066;2023-03-08T12:09:04;5.00;97.80
40996;DHT22;26723;57.478;12.066;2023-03-08T12:12:17;4.60;99.70
40996;DHT22;26723;57.478;12.066;2023-03-08T12:15:34;4.70;99.40
40996;DHT22;26723;57.478;12.066;2023-03-08T12:18:50;4.70;99.70
40996;DHT22;26723;57.478;12.066;2023-03-08T12:25:34;4.40;99.90
40996;DHT22;26723;57.478;12.066;2023-03-08T12:28:48;4.40;99.50
40996;DHT22;26723;57.478;12.066;2023-03-08T12:32:01;4.20;99.90
40996;DHT22;26723;57.478;12.066;2023-03-08T12:35:25;4.20;99.90
40996;DHT22;26723;57.478;12.066;2023-03-08T12:38:37;4.30;98.80
40996;DHT22;26723;57.478;12.066;2023-03-08T12:42:00;4.20;98.90
40996;DHT22;26723;57.478;12.066;2023-03-08T12:45:25;3.90;99.80
40996;DHT22;26723;57.478;12.066;2023-03-08T12:48:45;3.70;98.10
40996;DHT22;26723;57.478;12.066;2023-03-08T12:51:57;3.70;99.00
40996;DHT22;26723;57.478;12.066;2023-03-08T12:55:16;3.90;99.90
40996;DHT22;26723;57.478;12.066;2023-03-08T12:58:27;3.70;99.90
40996;DHT22;26723;57.478;12.066;2023-03-08T13:01:37;3.50;99.90
40996;DHT22;26723;57.478;12.066;2023-03-08T13:04:49;3.70;99.90
40996;DHT22;26723;57.478;12.066;2023-03-08T13:08:20;3.70;99.80
40996;DHT22;26723;57.478;12.066;2023-03-08T13:11:38;3.40;99.90
40996;DHT22;26723;57.478;12.066;2023-03-08T13:15:00;3.50;99.90
40996;DHT22;26723;57.478;12.066;2023-03-08T13:18:14;3.30;99.80
40996;DHT22;26723;57.478;12.066;2023-03-08T13:21:30;3.30;99.90
40996;DHT22;26723;57.478;12.066;2023-03-08T13:24:45;3.30;99.90
40996;DHT22;26723;57.478;12.066;2023-03-08T13:27:59;3.30;99.90
40996;DHT22;26723;57.478;12.066;2023-03-08T13:31:12;3.10;99.90
40996;DHT22;26723;57.478;12.066;2023-03-08T13:34:27;3.30;99.90
40996;DHT22;26723;57.478;12.066;2023-03-08T13:37:37;3.30;99.90
40996;DHT22;26723;57.478;12.066;2023-03-08T13:40:50;3.20;98.70
40996;DHT22;26723;57.478;12.066;2023-03-08T13:44:02;3.40;99.20
40996;DHT22;26723;57.478;12.066;2023-03-08T13:47:20;3.00;99.90
40996;DHT22;26723;57.478;12.066;2023-03-08T13:50:31;2.90;99.90
40996;DHT22;26723;57.478;12.066;2023-03-08T13:53:42;3.00;99.90
40996;DHT22;26723;57.478;12.066;2023-03-08T13:56:52;3.10;99.70
40996;DHT22;26723;57.478;12.066;2023-03-08T14:00:13;3.20;99.90
40996;DHT22;26723;57.478;12.066;2023-03-08T14:03:27;2.90;99.90
40996;DHT22;26723;57.478;12.066;2023-03-08T14:06:35;2.80;99.90
40996;DHT22;26723;57.478;12.066;2023-03-08T14:09:46;2.90;99.50
40996;DHT22;26723;57.478;12.066;2023-03-08T14:12:54;2.80;99.90
40996;DHT22;26723;57.478;12.066;2023-03-08T14:16:05;2.80;99.90
40996;DHT22;26723;57.478;12.066;2023-03-08T14:19:20;2.80;98.30
40996;DHT22;26723;57.478;12.066;2023-03-08T14:22:32;2.80;98.60
40996;DHT22;26723;57.478;12.066;2023-03-08T14:25:55;2.50;99.90
40996;DHT22;26723;57.478;12.066;2023-03-08T14:29:16;2.50;99.90
40996;DHT22;26723;57.478;12.066;2023-03-08T14:32:28;2.70;99.90
40996;DHT22;26723;57.478;12.066;2023-03-08T14:35:39;2.50;99.90
40996;DHT22;26723;57.478;12.066;2023-03-08T14:38:48;2.30;99.90
40996;DHT22;26723;57.478;12.066;2023-03-08T14:42:08;2.40;99.90
40996;DHT22;26723;57.478;12.066;2023-03-08T14:45:20;2.40;99.90
40996;DHT22;26723;57.478;12.066;2023-03-08T14:48:33;2.30;99.90
40996;DHT22;26723;57.478;12.066;2023-03-08T14:51:42;2.30;99.90
40996;DHT22;26723;57.478;12.066;2023-03-08T14:54:50;2.10;99.90
40996;DHT22;26723;57.478;12.066;2023-03-08T14:58:02;2.00;99.90
40996;DHT22;26723;57.478;12.066;2023-03-08T15:01:11;2.20;99.90
40996;DHT22;26723;57.478;12.066;2023-03-08T15:04:22;2.20;99.90
40996;DHT22;26723;57.478;12.066;2023-03-08T15:07:33;2.10;99.90
40996;DHT22;26723;57.478;12.066;2023-03-08T15:10:43;2.00;99.90
40996;DHT22;26723;57.478;12.066;2023-03-08T15:13:53;2.10;99.90
40996;DHT22;26723;57.478;12.066;2023-03-08T15:17:02;2.10;99.90
40996;DHT22;26723;57.478;12.066;2023-03-08T15:20:11;2.10;99.90
40996;DHT22;26723;57.478;12.066;2023-03-08T15:23:21;1.90;99.90
40996;DHT22;26723;57.478;12.066;2023-03-08T15:26:30;1.80;99.90
40996;DHT22;26723;57.478;12.066;2023-03-08T15:29:40;1.80;99.90
40996;DHT22;26723;57.478;12.066;2023-03-08T15:32:49;1.90;99.90
40996;DHT22;26723;57.478;12.066;2023-03-08T15:35:57;1.80;99.90
40996;DHT22;26723;57.478;12.066;2023-03-08T15:39:06;1.70;99.90
40996;DHT22;26723;57.478;12.066;2023-03-08T15:42:14;1.70;99.90
40996;DHT22;26723;57.478;12.066;2023-03-08T15:45:24;1.70;99.90
40996;DHT22;26723;57.478;12.066;2023-03-08T15:48:32;1.70;99.90
40996;DHT22;26723;57.478;12.066;2023-03-08T15:51:41;1.60;99.90
40996;DHT22;26723;57.478;12.066;2023-03-08T15:54:49;1.60;99.90
40996;DHT22;26723;57.478;12.066;2023-03-08T15:57:58;1.40;99.90
40996;DHT22;26723;57.478;12.066;2023-03-08T16:01:08;1.40;99.90
40996;DHT22;26723;57.478;12.066;2023-03-08T16:04:18;1.40;99.90
40996;DHT22;26723;57.478;12.066;2023-03-08T16:07:26;1.40;99.90
40996;DHT22;26723;57.478;12.066;2023-03-08T16:10:35;1.40;99.90
40996;DHT22;26723;57.478;12.066;2023-03-08T16:13:47;1.50;99.90
40996;DHT22;26723;57.478;12.066;2023-03-08T16:16:57;1.40;99.90
40996;DHT22;26723;57.478;12.066;2023-03-08T16:20:07;1.30;99.90
40996;DHT22;26723;57.478;12.066;2023-03-08T16:23:16;1.30;99.90
40996;DHT22;26723;57.478;12.066;2023-03-08T16:26:24;1.20;99.90
40996;DHT22;26723;57.478;12.066;2023-03-08T16:29:33;1.20;99.90
40996;DHT22;26723;57.478;12.066;2023-03-08T16:32:43;1.00;99.90
40996;DHT22;26723;57.478;12.066;2023-03-08T16:35:52;1.00;99.90
40996;DHT22;26723;57.478;12.066;2023-03-08T16:39:01;1.00;99.90
40996;DHT22;26723;57.478;12.066;2023-03-08T16:42:11;0.80;99.90
40996;DHT22;26723;57.478;12.066;2023-03-08T16:45:19;0.70;99.90
40996;DHT22;26723;57.478;12.066;2023-03-08T16:48:29;0.60;99.90
40996;DHT22;26723;57.478;12.066;2023-03-08T16:51:38;0.50;99.90
40996;DHT22;26723;57.478;12.066;2023-03-08T16:54:46;0.20;99.90
40996;DHT22;26723;57.478;12.066;2023-03-08T16:57:55;0.10;99.90
40996;DHT22;26723;57.478;12.066;2023-03-08T17:01:09;-0.10;99.90
40996;DHT22;26723;57.478;12.066;2023-03-08T17:04:19;-0.20;99.90
40996;DHT22;26723;57.478;12.066;2023-03-08T17:07:29;-0.30;99.90
40996;DHT22;26723;57.478;12.066;2023-03-08T17:10:38;-0.40;99.90
40996;DHT22;26723;57.478;12.066;2023-03-08T17:13:47;-0.60;99.90
40996;DHT22;26723;57.478;12.066;2023-03-08T17:16:57;-0.70;99.90
40996;DHT22;26723;57.478;12.066;2023-03-08T17:20:08;-0.90;99.90
40996;DHT22;26723;57.478;12.066;2023-03-08T17:23:18;-1.00;99.90
40996;DHT22;26723;57.478;12.066;2023-03-08T17:26:27;-1.10;99.90
40996;DHT22;26723;57.478;12.066;2023-03-08T17:29:35;-1.30;99.90
40996;DHT22;26723;57.478;12.066;2023-03-08T17:32:43;-1.40;99.90
40996;DHT22;26723;57.478;12.066;2023-03-08T17:35:54;-1.40;99.90
40996;DHT22;26723;57.478;12.066;2023-03-08T17:39:05;-1.60;99.90
40996;DHT22;26723;57.478;12.066;2023-03-08T17:42:13;-1.80;99.90
40996;DHT22;26723;57.478;12.066;2023-03-08T17:45:22;-1.90;99.90
40996;DHT22;26723;57.478;12.066;2023-03-08T17:48:30;-1.90;99.90
40996;DHT22;26723;57.478;12.066;2023-03-08T17:51:40;-2.00;99.90
40996;DHT22;26723;57.478;12.066;2023-03-08T17:54:48;-2.10;99.90
40996;DHT22;26723;57.478;12.066;2023-03-08T17:57:57;-2.20;99.90
40996;DHT22;26723;57.478;12.066;2023-03-08T18:01:07;-2.30;99.90
40996;DHT22;26723;57.478;12.066;2023-03-08T18:04:15;-2.30;99.90
40996;DHT22;26723;57.478;12.066;2023-03-08T18:07:26;-2.40;99.90
40996;DHT22;26723;57.478;12.066;2023-03-08T18:10:35;-2.50;99.90
40996;DHT22;26723;57.478;12.066;2023-03-08T18:13:44;-2.50;99.90
40996;DHT22;26723;57.478;12.066;2023-03-08T18:16:53;-2.50;99.90
40996;DHT22;26723;57.478;12.066;2023-03-08T18:20:01;-2.60;99.90
40996;DHT22;26723;57.478;12.066;2023-03-08T18:23:13;-2.70;99.90
40996;DHT22;26723;57.478;12.066;2023-03-08T18:26:21;-2.90;99.90
40996;DHT22;26723;57.478;12.066;2023-03-08T18:29:30;-3.00;99.90
40996;DHT22;26723;57.478;12.066;2023-03-08T18:32:39;-3.10;99.90
40996;DHT22;26723;57.478;12.066;2023-03-08T18:35:55;-3.10;99.90
40996;DHT22;26723;57.478;12.066;2023-03-08T18:39:07;-3.10;99.90
40996;DHT22;26723;57.478;12.066;2023-03-08T18:42:16;-3.40;99.90
40996;DHT22;26723;57.478;12.066;2023-03-08T18:45:24;-3.50;99.90
40996;DHT22;26723;57.478;12.066;2023-03-08T18:48:33;-3.50;99.90
40996;DHT22;26723;57.478;12.066;2023-03-08T18:51:42;-3.50;99.90
40996;DHT22;26723;57.478;12.066;2023-03-08T18:54:52;-3.50;99.90
40996;DHT22;26723;57.478;12.066;2023-03-08T18:58:00;-3.70;99.90
40996;DHT22;26723;57.478;12.066;2023-03-08T19:01:10;-3.70;99.90
40996;DHT22;26723;57.478;12.066;2023-03-08T19:04:19;-3.70;99.90
40996;DHT22;26723;57.478;12.066;2023-03-08T19:07:27;-3.90;99.90
40996;DHT22;26723;57.478;12.066;2023-03-08T19:10:37;-3.80;99.90
40996;DHT22;26723;57.478;12.066;2023-03-08T19:13:46;-3.90;99.90
40996;DHT22;26723;57.478;12.066;2023-03-08T19:16:55;-4.10;99.90
40996;DHT22;26723;57.478;12.066;2023-03-08T19:20:05;-4.10;99.90
40996;DHT22;26723;57.478;12.066;2023-03-08T19:23:14;-4.40;99.90
40996;DHT22;26723;57.478;12.066;2023-03-08T19:26:26;-4.50;99.90
40996;DHT22;26723;57.478;12.066;2023-03-08T19:29:44;-4.60;99.90
40996;DHT22;26723;57.478;12.066;2023-03-08T19:32:52;-4.50;99.90
40996;DHT22;26723;57.478;12.066;2023-03-08T19:36:01;-4.60;99.90
40996;DHT22;26723;57.478;12.066;2023-03-08T19:39:12;-4.80;99.90
40996;DHT22;26723;57.478;12.066;2023-03-08T19:42:23;-4.80;99.90
40996;DHT22;26723;57.478;12.066;2023-03-08T19:45:31;-4.70;99.90
40996;DHT22;26723;57.478;12.066;2023-03-08T19:48:39;-4.80;99.90
40996;DHT22;26723;57.478;12.066;2023-03-08T19:51:49;-5.00;99.90
40996;DHT22;26723;57.478;12.066;2023-03-08T19:54:58;-5.10;99.90
40996;DHT22;26723;57.478;12.066;2023-03-08T19:58:07;-5.10;99.90
40996;DHT22;26723;57.478;12.066;2023-03-08T20:01:18;-5.00;99.90